Terminal Aerodrome Forecast
Issued by NWS

Current Version | Previous Version | Text Only | Print | Product List | Glossary On
Versions: 1 2 3 4 5 6 7 8 9 10 11 12 13 14
000
FTUS45 KSLC 101744
TAFENV
TAF
KENV 101744Z 1018/1118 13005KT P6SM BKN060 OVC100
     FM102100 29011KT P6SM VCSH BKN050 OVC100
     FM110400 32007KT P6SM SCT050 BKN100
      AMD LTD TO CLD VIS AND WIND=

USA.gov is the U.S. government's official web portal to all federal, state and local government web resources and services.